Language: 


Des rapports , des résumés tant et plus, au choix de chacun....


Données statistiques de la station
Quotidien Rapport Février 26, 2017 Unités:  Métrique    Anglais   les deux
« Précédent Jour
Suivant Jour »
Quotidien Hebdomadaire Mensuel Annuel Actuel
  Haut: Bas: Moyen:
Température: 12.4 °C 0.0 °C 9.6 °C
Pt de rosée: 10.5 °C 3.9 °C 7.2 °C
Humidité: 94 % 0 % 85 %
Vitesse du vent: 27.7 km/h 4.0 km/h 12.6 km/h
Rafales: 32.3 km/h - -
Vent:- - SW
Pression: 1013.1 hPa 0.0 hPa -
Précipitation: 0.0 mm    
Historical Graphs
 
 
Données statistiques pour Février 26, 2017
Heure Température Point de rosée Pression Vent Vitesse du vent Refales Humidité Pluie (taux horaire)
00:00 8.3 °C 4.3 °C 1012.1 hPa SW 11.9 km/h 19.5 km/h 76 % 0.0 mm
00:05 8.3 °C 4.2 °C 1012.1 hPa SSW 9.3 km/h 16.6 km/h 75 % 0.0 mm
00:10 8.3 °C 4.2 °C 1013.1 hPa SSW 9.3 km/h 18.3 km/h 75 % 0.0 mm
00:15 8.3 °C 4.2 °C 1013.1 hPa SSW 9.7 km/h 20.6 km/h 75 % 0.0 mm
00:20 8.3 °C 4.2 °C 1013.1 hPa SSW 23.8 km/h 23.8 km/h 75 % 0.0 mm
00:25 8.3 °C 4.2 °C 1013.1 hPa SSW 10.5 km/h 23.8 km/h 75 % 0.0 mm
00:30 8.3 °C 4.2 °C 1013.1 hPa SW 12.6 km/h 20.1 km/h 75 % 0.0 mm
00:35 8.3 °C 4.2 °C 1013.1 hPa WSW 14.0 km/h 17.2 km/h 75 % 0.0 mm
00:40 8.3 °C 4.2 °C 1013.1 hPa SSW 9.7 km/h 19.8 km/h 75 % 0.0 mm
00:45 8.3 °C 4.2 °C 1013.1 hPa SSW 10.5 km/h 19.8 km/h 75 % 0.0 mm
00:50 8.3 °C 4.2 °C 1013.1 hPa SSW 9.3 km/h 17.7 km/h 75 % 0.0 mm
00:55 8.2 °C 4.1 °C 1012.1 hPa SW 16.3 km/h 17.7 km/h 75 % 0.0 mm
01:00 8.2 °C 4.1 °C 1012.1 hPa SSW 14.0 km/h 18.0 km/h 75 % 0.0 mm
01:05 8.2 °C 4.2 °C 1012.1 hPa SSW 9.0 km/h 18.0 km/h 76 % 0.0 mm
01:10 8.2 °C 4.2 °C 1012.1 hPa SW 13.0 km/h 17.7 km/h 76 % 0.0 mm
01:15 8.1 °C 4.2 °C 1012.1 hPa SW 15.8 km/h 17.7 km/h 76 % 0.0 mm
01:20 8.1 °C 4.2 °C 1012.1 hPa SW 14.0 km/h 17.7 km/h 76 % 0.0 mm
01:25 8.1 °C 4.2 °C 1012.1 hPa SSW 9.7 km/h 17.7 km/h 76 % 0.0 mm
01:30 8.1 °C 4.2 °C 1012.1 hPa SW 15.8 km/h 17.7 km/h 76 % 0.0 mm
01:35 8.1 °C 4.2 °C 1012.1 hPa WSW 11.6 km/h 16.9 km/h 76 % 0.0 mm
01:40 8.1 °C 4.2 °C 1012.1 hPa SSW 9.3 km/h 16.9 km/h 76 % 0.0 mm
01:45 8.1 °C 3.9 °C 1012.1 hPa SW 15.4 km/h 16.9 km/h 75 % 0.0 mm
01:50 8.1 °C 3.9 °C 1012.1 hPa SW 13.0 km/h 17.7 km/h 75 % 0.0 mm
01:55 8.1 °C 3.9 °C 1012.1 hPa SW 12.2 km/h 20.1 km/h 75 % 0.0 mm
02:02 0.0 °C 4.0 °C 0.0 hPa SSW 9.3 km/h 17.2 km/h 0 % 0.0 mm
02:07 8.1 °C 3.9 °C 1012.1 hPa SW 11.6 km/h 17.2 km/h 75 % 0.0 mm
02:12 8.1 °C 3.9 °C 1012.1 hPa SW 14.0 km/h 16.6 km/h 75 % 0.0 mm
02:17 8.1 °C 3.9 °C 1012.1 hPa SSW 6.4 km/h 17.7 km/h 75 % 0.0 mm
02:22 8.1 °C 4.1 °C 1011.1 hPa SSW 12.2 km/h 17.7 km/h 76 % 0.0 mm
02:27 8.1 °C 4.1 °C 1011.1 hPa SSW 6.4 km/h 15.8 km/h 76 % 0.0 mm
02:32 7.9 °C 3.9 °C 1011.1 hPa SSW 10.5 km/h 13.7 km/h 76 % 0.0 mm
02:37 7.9 °C 3.9 °C 1011.1 hPa SSW 13.0 km/h 14.3 km/h 76 % 0.0 mm
02:42 7.9 °C 3.9 °C 1011.1 hPa WSW 9.3 km/h 17.7 km/h 76 % 0.0 mm
02:43 7.9 °C 3.9 °C 1011.1 hPa SSW 6.1 km/h 17.7 km/h 76 % 0.0 mm
02:48 7.9 °C 3.9 °C 1011.1 hPa SW 9.7 km/h 17.7 km/h 76 % 0.0 mm
02:53 7.9 °C 3.9 °C 1011.1 hPa SSW 8.7 km/h 15.8 km/h 76 % 0.0 mm
02:58 7.9 °C 3.9 °C 1011.1 hPa SSW 11.6 km/h 15.4 km/h 76 % 0.0 mm
03:03 7.9 °C 3.9 °C 1011.1 hPa SW 9.0 km/h 17.7 km/h 76 % 0.0 mm
03:08 7.8 °C 4.1 °C 1011.1 hPa South 13.0 km/h 14.0 km/h 77 % 0.0 mm
03:13 7.8 °C 4.1 °C 1011.1 hPa WSW 17.2 km/h 17.2 km/h 77 % 0.0 mm
03:18 7.8 °C 4.1 °C 1011.1 hPa SW 12.2 km/h 20.6 km/h 77 % 0.0 mm
03:23 7.8 °C 4.1 °C 1010.0 hPa SW 13.7 km/h 20.6 km/h 77 % 0.0 mm
03:28 7.8 °C 4.1 °C 1010.0 hPa SW 12.2 km/h 16.9 km/h 77 % 0.0 mm
03:33 7.8 °C 4.1 °C 1010.0 hPa SW 16.3 km/h 20.1 km/h 77 % 0.0 mm
03:38 7.9 °C 4.2 °C 1011.1 hPa SW 12.6 km/h 20.1 km/h 77 % 0.0 mm
03:43 7.9 °C 3.9 °C 1011.1 hPa SSW 12.6 km/h 20.9 km/h 76 % 0.0 mm
03:48 7.8 °C 4.1 °C 1011.1 hPa SW 13.0 km/h 21.2 km/h 77 % 0.0 mm
03:53 7.8 °C 4.1 °C 1011.1 hPa WSW 12.2 km/h 21.2 km/h 77 % 0.0 mm
03:58 7.9 °C 4.2 °C 1011.1 hPa SSW 8.7 km/h 18.3 km/h 77 % 0.0 mm
04:03 7.9 °C 4.2 °C 1011.1 hPa SW 14.0 km/h 18.3 km/h 77 % 0.0 mm
04:08 7.8 °C 4.1 °C 1011.1 hPa WSW 11.6 km/h 14.8 km/h 77 % 0.0 mm
04:13 7.8 °C 4.1 °C 1011.1 hPa SSW 10.5 km/h 15.4 km/h 77 % 0.0 mm
04:18 7.8 °C 4.1 °C 1011.1 hPa South 12.6 km/h 19.8 km/h 77 % 0.0 mm
04:23 7.8 °C 4.1 °C 1011.1 hPa WSW 10.1 km/h 19.8 km/h 77 % 0.0 mm
04:28 7.8 °C 4.1 °C 1011.1 hPa SSW 8.7 km/h 21.2 km/h 77 % 0.0 mm
04:33 7.8 °C 4.1 °C 1011.1 hPa SW 13.0 km/h 21.2 km/h 77 % 0.0 mm
04:38 7.8 °C 4.1 °C 1011.1 hPa WSW 14.0 km/h 17.2 km/h 77 % 0.0 mm
04:43 7.8 °C 4.1 °C 1011.1 hPa South 12.2 km/h 19.1 km/h 77 % 0.0 mm
04:48 7.7 °C 4.2 °C 1011.1 hPa SW 10.5 km/h 19.1 km/h 78 % 0.0 mm
04:53 7.7 °C 4.2 °C 1011.1 hPa SW 10.1 km/h 16.6 km/h 78 % 0.0 mm
04:58 7.7 °C 4.2 °C 1011.1 hPa WSW 9.7 km/h 16.6 km/h 78 % 0.0 mm
05:03 7.7 °C 4.2 °C 1011.1 hPa South 8.7 km/h 16.6 km/h 78 % 0.0 mm
05:08 7.7 °C 4.2 °C 1010.0 hPa SSW 8.7 km/h 12.6 km/h 78 % 0.0 mm
05:13 7.7 °C 4.2 °C 1010.0 hPa SSW 4.0 km/h 14.0 km/h 78 % 0.0 mm
05:18 7.7 °C 4.2 °C 1010.0 hPa SSW 5.5 km/h 14.0 km/h 79 % 0.0 mm
05:23 7.7 °C 4.2 °C 1010.0 hPa SSW 6.4 km/h 9.7 km/h 79 % 0.0 mm
05:28 7.7 °C 4.4 °C 1010.0 hPa South 10.5 km/h 12.6 km/h 80 % 0.0 mm
05:33 7.7 °C 4.4 °C 1010.0 hPa SSW 10.5 km/h 12.6 km/h 80 % 0.0 mm
05:38 7.7 °C 4.4 °C 1010.0 hPa SW 8.7 km/h 11.1 km/h 80 % 0.0 mm
05:43 7.7 °C 4.4 °C 1010.0 hPa SSW 9.0 km/h 11.9 km/h 80 % 0.0 mm
05:48 7.7 °C 4.7 °C 1010.0 hPa SW 16.3 km/h 16.3 km/h 81 % 0.0 mm
05:53 7.7 °C 4.7 °C 1010.0 hPa WSW 10.5 km/h 16.3 km/h 81 % 0.0 mm
05:58 7.7 °C 4.7 °C 1010.0 hPa SW 6.9 km/h 16.3 km/h 81 % 0.0 mm
06:03 7.7 °C 4.8 °C 1010.0 hPa WSW 10.1 km/h 13.7 km/h 82 % 0.0 mm
06:08 7.7 °C 4.8 °C 1010.0 hPa WSW 10.1 km/h 13.7 km/h 82 % 0.0 mm
06:13 7.7 °C 4.8 °C 1010.0 hPa SW 10.5 km/h 16.3 km/h 82 % 0.0 mm
06:18 7.7 °C 4.8 °C 1010.0 hPa WSW 8.7 km/h 16.3 km/h 82 % 0.0 mm
06:23 7.7 °C 4.8 °C 1011.1 hPa SW 13.0 km/h 14.0 km/h 82 % 0.0 mm
06:28 7.7 °C 4.8 °C 1011.1 hPa WSW 10.1 km/h 14.0 km/h 82 % 0.0 mm
06:33 7.7 °C 5.1 °C 1011.1 hPa SW 7.9 km/h 13.7 km/h 83 % 0.0 mm
06:38 7.7 °C 4.9 °C 1011.1 hPa WSW 12.6 km/h 15.8 km/h 83 % 0.0 mm
06:43 7.6 °C 4.8 °C 1011.1 hPa SW 9.3 km/h 15.8 km/h 83 % 0.0 mm
06:48 7.6 °C 5.0 °C 1011.1 hPa WSW 12.6 km/h 14.0 km/h 84 % 0.0 mm
06:53 7.4 °C 5.1 °C 1011.1 hPa WSW 13.0 km/h 15.4 km/h 85 % 0.0 mm
06:59 7.3 °C 5.0 °C 1011.1 hPa SW 9.0 km/h 15.4 km/h 85 % 0.0 mm
07:04 7.3 °C 5.1 °C 1011.1 hPa WSW 9.7 km/h 14.0 km/h 86 % 0.0 mm
07:09 7.3 °C 5.1 °C 1011.1 hPa SW 12.2 km/h 14.0 km/h 86 % 0.0 mm
07:14 7.3 °C 5.2 °C 1011.1 hPa SW 13.7 km/h 16.6 km/h 87 % 0.0 mm
07:19 7.3 °C 5.4 °C 1011.1 hPa SSW 6.4 km/h 16.6 km/h 88 % 0.0 mm
07:23 7.3 °C 5.6 °C 1010.0 hPa SSW 12.2 km/h 16.9 km/h 89 % 0.0 mm
07:28 7.3 °C 5.7 °C 1010.0 hPa SSW 14.0 km/h 16.9 km/h 90 % 0.0 mm
07:33 7.3 °C 5.7 °C 1010.0 hPa SW 9.7 km/h 16.3 km/h 90 % 0.0 mm
07:39 7.2 °C 5.8 °C 1011.1 hPa SSW 10.1 km/h 13.0 km/h 91 % 0.0 mm
07:43 7.2 °C 5.9 °C 1011.1 hPa SW 10.1 km/h 17.7 km/h 92 % 0.0 mm
07:48 7.1 °C 5.8 °C 1011.1 hPa SSW 11.1 km/h 17.7 km/h 92 % 0.0 mm
07:53 6.9 °C 5.7 °C 1010.0 hPa SW 11.6 km/h 19.5 km/h 92 % 0.0 mm
07:58 6.9 °C 5.7 °C 1010.0 hPa SSW 10.5 km/h 19.5 km/h 92 % 0.0 mm
08:03 6.9 °C 5.7 °C 1010.0 hPa SW 7.9 km/h 16.3 km/h 92 % 0.0 mm
08:08 7.1 °C 6.0 °C 1011.1 hPa SSW 10.5 km/h 14.8 km/h 93 % 0.0 mm
08:13 7.3 °C 6.2 °C 1011.1 hPa SSW 10.5 km/h 15.8 km/h 93 % 0.0 mm
08:18 7.3 °C 6.3 °C 1011.1 hPa WSW 9.7 km/h 17.7 km/h 94 % 0.0 mm
08:23 7.3 °C 6.3 °C 1011.1 hPa SSW 10.5 km/h 17.7 km/h 94 % 0.0 mm
08:28 7.3 °C 6.3 °C 1011.1 hPa SSW 10.5 km/h 17.2 km/h 93 % 0.0 mm
08:33 7.3 °C 6.4 °C 1011.1 hPa South 10.1 km/h 19.5 km/h 94 % 0.0 mm
08:38 7.4 °C 6.6 °C 1011.1 hPa WSW 14.0 km/h 19.5 km/h 94 % 0.0 mm
08:43 7.4 °C 6.6 °C 1011.1 hPa SW 15.1 km/h 17.2 km/h 94 % 0.0 mm
08:48 7.6 °C 6.7 °C 1011.1 hPa SSW 16.3 km/h 16.6 km/h 94 % 0.0 mm
08:53 7.7 °C 6.7 °C 1011.1 hPa SW 7.9 km/h 17.2 km/h 94 % 0.0 mm
08:58 7.7 °C 6.8 °C 1011.1 hPa SW 9.0 km/h 17.2 km/h 94 % 0.0 mm
09:03 7.7 °C 6.8 °C 1011.1 hPa SW 12.6 km/h 16.3 km/h 94 % 0.0 mm
09:08 7.8 °C 6.8 °C 1011.1 hPa WSW 9.3 km/h 16.3 km/h 93 % 0.0 mm
09:13 7.8 °C 6.8 °C 1011.1 hPa SW 9.7 km/h 16.6 km/h 93 % 0.0 mm
09:18 7.9 °C 6.9 °C 1011.1 hPa SSW 15.4 km/h 16.6 km/h 93 % 0.0 mm
09:23 8.1 °C 7.0 °C 1011.1 hPa SW 13.0 km/h 17.2 km/h 93 % 0.0 mm
09:29 8.1 °C 7.1 °C 1011.1 hPa SSW 11.1 km/h 17.2 km/h 93 % 0.0 mm
09:34 8.2 °C 7.2 °C 1011.1 hPa SW 12.6 km/h 16.3 km/h 93 % 0.0 mm
09:39 8.3 °C 7.3 °C 1010.0 hPa SW 7.9 km/h 17.2 km/h 93 % 0.0 mm
09:44 8.4 °C 7.4 °C 1010.0 hPa SW 10.5 km/h 17.2 km/h 93 % 0.0 mm
09:49 8.5 °C 7.4 °C 1010.0 hPa SW 16.3 km/h 17.2 km/h 93 % 0.0 mm
09:54 8.5 °C 7.4 °C 1011.1 hPa SSW 12.2 km/h 17.2 km/h 93 % 0.0 mm
09:59 8.6 °C 7.6 °C 1011.1 hPa WSW 9.7 km/h 16.9 km/h 93 % 0.0 mm
10:04 8.6 °C 7.6 °C 1011.1 hPa SW 15.8 km/h 17.7 km/h 93 % 0.0 mm
10:09 8.7 °C 7.7 °C 1011.1 hPa SW 10.5 km/h 17.7 km/h 93 % 0.0 mm
10:14 8.7 °C 7.7 °C 1011.1 hPa WSW 15.4 km/h 17.7 km/h 93 % 0.0 mm
10:19 8.8 °C 7.7 °C 1011.1 hPa SW 13.7 km/h 17.2 km/h 93 % 0.0 mm
10:24 8.9 °C 7.8 °C 1011.1 hPa SW 11.9 km/h 17.2 km/h 93 % 0.0 mm
10:29 8.9 °C 7.8 °C 1011.1 hPa WSW 16.3 km/h 17.2 km/h 93 % 0.0 mm
10:34 9.0 °C 7.9 °C 1011.1 hPa SSW 15.1 km/h 17.2 km/h 93 % 0.0 mm
10:39 9.0 °C 7.9 °C 1011.1 hPa WSW 16.9 km/h 16.9 km/h 93 % 0.0 mm
10:44 9.0 °C 7.9 °C 1011.1 hPa SSW 17.2 km/h 18.0 km/h 93 % 0.0 mm
10:49 9.1 °C 7.9 °C 1011.1 hPa SW 16.6 km/h 20.6 km/h 92 % 0.0 mm
10:54 9.2 °C 8.0 °C 1011.1 hPa SSW 14.0 km/h 21.2 km/h 92 % 0.0 mm
10:59 9.3 °C 8.2 °C 1011.1 hPa SSW 12.2 km/h 21.2 km/h 93 % 0.0 mm
11:04 9.4 °C 8.3 °C 1011.1 hPa SSW 19.8 km/h 19.8 km/h 93 % 0.0 mm
11:09 9.5 °C 8.4 °C 1011.1 hPa SSW 9.7 km/h 28.5 km/h 93 % 0.0 mm
11:14 9.5 °C 8.4 °C 1011.1 hPa SW 12.6 km/h 28.5 km/h 93 % 0.0 mm
11:19 9.6 °C 8.5 °C 1011.1 hPa SW 13.7 km/h 20.9 km/h 93 % 0.0 mm
11:24 9.8 °C 8.6 °C 1011.1 hPa SW 11.9 km/h 21.6 km/h 92 % 0.0 mm
11:29 9.9 °C 8.7 °C 1011.1 hPa SW 13.7 km/h 21.6 km/h 92 % 0.0 mm
11:34 9.9 °C 8.7 °C 1011.1 hPa WSW 17.7 km/h 21.9 km/h 92 % 0.0 mm
11:39 10.0 °C 8.8 °C 1011.1 hPa South 12.6 km/h 23.0 km/h 92 % 0.0 mm
11:44 10.1 °C 8.7 °C 1011.1 hPa WSW 16.6 km/h 23.0 km/h 91 % 0.0 mm
11:49 10.1 °C 8.7 °C 1011.1 hPa SW 15.4 km/h 17.2 km/h 91 % 0.0 mm
11:54 10.1 °C 8.7 °C 1011.1 hPa WSW 13.7 km/h 19.8 km/h 91 % 0.0 mm
11:59 10.1 °C 8.7 °C 1011.1 hPa SW 9.7 km/h 19.8 km/h 91 % 0.0 mm
12:04 10.1 °C 8.7 °C 1011.1 hPa WSW 13.7 km/h 19.8 km/h 91 % 0.0 mm
12:09 10.1 °C 8.7 °C 1011.1 hPa SW 13.0 km/h 19.8 km/h 91 % 0.0 mm
12:14 10.3 °C 9.1 °C 1011.1 hPa SSW 12.6 km/h 19.8 km/h 92 % 0.0 mm
12:19 10.5 °C 9.2 °C 1011.1 hPa WSW 19.8 km/h 19.8 km/h 92 % 0.0 mm
12:24 10.5 °C 9.2 °C 1010.0 hPa SSW 16.6 km/h 21.2 km/h 92 % 0.0 mm
12:29 10.6 °C 9.3 °C 1010.0 hPa WSW 17.2 km/h 24.5 km/h 92 % 0.0 mm
12:30 10.6 °C 9.3 °C 1010.0 hPa SW 16.3 km/h 24.5 km/h 92 % 0.0 mm
12:35 10.7 °C 9.4 °C 1010.0 hPa SW 17.2 km/h 27.7 km/h 92 % 0.0 mm
12:40 10.8 °C 9.6 °C 1010.0 hPa WSW 19.5 km/h 27.7 km/h 92 % 0.0 mm
12:45 10.9 °C 9.4 °C 1010.0 hPa SW 17.2 km/h 24.8 km/h 91 % 0.0 mm
12:50 11.0 °C 9.7 °C 1010.0 hPa SSW 12.6 km/h 20.9 km/h 92 % 0.0 mm
12:55 11.1 °C 9.7 °C 1010.0 hPa SW 11.9 km/h 21.2 km/h 91 % 0.0 mm
13:00 11.0 °C 9.6 °C 1010.0 hPa SSW 8.7 km/h 21.2 km/h 91 % 0.0 mm
13:05 11.0 °C 9.6 °C 1010.0 hPa SW 19.8 km/h 20.1 km/h 91 % 0.0 mm
13:10 11.0 °C 9.6 °C 1011.1 hPa SSW 10.5 km/h 21.2 km/h 91 % 0.0 mm
13:15 11.1 °C 9.7 °C 1011.1 hPa SW 21.6 km/h 21.6 km/h 91 % 0.0 mm
13:20 11.0 °C 9.4 °C 1011.1 hPa WSW 16.3 km/h 21.6 km/h 90 % 0.0 mm
13:25 11.1 °C 9.5 °C 1010.0 hPa SSW 9.3 km/h 23.3 km/h 90 % 0.0 mm
13:30 11.1 °C 9.5 °C 1010.0 hPa SW 13.7 km/h 23.3 km/h 90 % 0.0 mm
13:35 11.1 °C 9.5 °C 1010.0 hPa WSW 19.8 km/h 25.9 km/h 90 % 0.0 mm
13:40 11.1 °C 9.5 °C 1010.0 hPa WSW 10.1 km/h 25.9 km/h 90 % 0.0 mm
13:45 11.3 °C 9.7 °C 1010.0 hPa SSW 14.0 km/h 23.8 km/h 90 % 0.0 mm
13:50 11.7 °C 10.2 °C 1010.0 hPa South 12.6 km/h 21.6 km/h 91 % 0.0 mm
13:55 11.6 °C 10.0 °C 1010.0 hPa SW 14.0 km/h 23.3 km/h 90 % 0.0 mm
14:00 11.4 °C 9.9 °C 1010.0 hPa SSW 16.6 km/h 23.3 km/h 90 % 0.0 mm
14:05 11.3 °C 9.7 °C 1010.0 hPa SW 13.7 km/h 24.5 km/h 90 % 0.0 mm
14:10 11.1 °C 9.7 °C 1010.0 hPa SW 10.1 km/h 25.3 km/h 91 % 0.0 mm
14:15 11.1 °C 9.8 °C 1010.0 hPa SSW 11.9 km/h 25.3 km/h 92 % 0.0 mm
14:20 11.1 °C 9.8 °C 1010.0 hPa SSW 16.3 km/h 21.2 km/h 92 % 0.0 mm
14:21 11.1 °C 9.8 °C 1010.0 hPa WSW 12.6 km/h 21.2 km/h 92 % 0.0 mm
14:26 11.1 °C 10.0 °C 1010.0 hPa WSW 17.7 km/h 19.5 km/h 93 % 0.0 mm
14:30 11.2 °C 10.1 °C 1010.0 hPa SSW 14.0 km/h 18.3 km/h 93 % 0.0 mm
14:36 11.2 °C 10.2 °C 1010.0 hPa WSW 9.7 km/h 21.6 km/h 94 % 0.0 mm
14:40 11.4 °C 10.4 °C 1010.0 hPa WSW 10.5 km/h 21.6 km/h 94 % 0.0 mm
14:46 11.4 °C 10.4 °C 1010.0 hPa SSW 13.0 km/h 21.6 km/h 94 % 0.0 mm
14:51 11.4 °C 10.3 °C 1010.0 hPa SSW 13.0 km/h 23.0 km/h 93 % 0.0 mm
14:55 11.4 °C 9.9 °C 1009.0 hPa WSW 17.2 km/h 32.3 km/h 91 % 0.0 mm
15:01 11.6 °C 10.2 °C 1009.0 hPa WSW 16.3 km/h 32.3 km/h 91 % 0.0 mm
15:05 11.7 °C 10.1 °C 1009.0 hPa WSW 13.7 km/h 21.2 km/h 90 % 0.0 mm
15:10 11.9 °C 10.2 °C 1009.0 hPa SSW 16.6 km/h 21.2 km/h 89 % 0.0 mm
15:16 12.4 °C 10.5 °C 1009.0 hPa SSW 13.0 km/h 21.6 km/h 88 % 0.0 mm
15:20 12.4 °C 10.2 °C 1009.0 hPa SW 17.7 km/h 23.3 km/h 86 % 0.0 mm
15:25 12.3 °C 9.9 °C 1008.0 hPa SW 15.4 km/h 23.8 km/h 85 % 0.0 mm
15:31 12.3 °C 9.7 °C 1008.0 hPa SW 15.8 km/h 24.8 km/h 84 % 0.0 mm
15:35 12.3 °C 9.7 °C 1008.0 hPa SW 12.6 km/h 24.8 km/h 84 % 0.0 mm
15:40 12.2 °C 9.6 °C 1009.0 hPa SW 9.7 km/h 21.2 km/h 84 % 0.0 mm
15:45 12.2 °C 9.4 °C 1009.0 hPa SSW 19.5 km/h 20.9 km/h 83 % 0.0 mm
15:50 12.2 °C 9.4 °C 1009.0 hPa WSW 11.9 km/h 20.9 km/h 83 % 0.0 mm
15:55 12.2 °C 9.3 °C 1009.0 hPa SW 15.8 km/h 20.6 km/h 83 % 0.0 mm
16:00 12.2 °C 9.3 °C 1009.0 hPa SW 17.7 km/h 23.3 km/h 83 % 0.0 mm
16:05 12.1 °C 9.3 °C 1009.0 hPa SSW 16.6 km/h 23.3 km/h 83 % 0.0 mm
16:10 12.1 °C 9.3 °C 1009.0 hPa SSW 10.1 km/h 28.5 km/h 83 % 0.0 mm
16:16 12.2 °C 9.3 °C 1009.0 hPa WSW 15.8 km/h 28.5 km/h 83 % 0.0 mm
16:21 12.2 °C 9.4 °C 1009.0 hPa WSW 24.5 km/h 25.6 km/h 83 % 0.0 mm
16:26 12.2 °C 8.8 °C 1009.0 hPa WSW 27.7 km/h 31.7 km/h 80 % 0.0 mm
16:31 12.2 °C 8.5 °C 1009.0 hPa West 20.6 km/h 31.7 km/h 78 % 0.0 mm
16:36 12.2 °C 8.7 °C 1009.0 hPa WSW 18.3 km/h 28.5 km/h 79 % 0.0 mm
16:41 12.2 °C 8.9 °C 1009.0 hPa WSW 14.0 km/h 28.0 km/h 80 % 0.0 mm
16:46 12.2 °C 9.1 °C 1009.0 hPa SSW 9.3 km/h 23.3 km/h 81 % 0.0 mm
16:51 12.2 °C 9.1 °C 1009.0 hPa SW 14.0 km/h 23.0 km/h 81 % 0.0 mm
16:56 12.2 °C 9.1 °C 1009.0 hPa SSW 19.5 km/h 21.2 km/h 81 % 0.0 mm
17:01 12.2 °C 9.1 °C 1009.0 hPa SW 15.8 km/h 21.2 km/h 81 % 0.0 mm
17:06 12.2 °C 9.1 °C 1009.0 hPa SW 14.8 km/h 27.0 km/h 81 % 0.0 mm
17:11 12.2 °C 9.1 °C 1009.0 hPa WSW 17.7 km/h 27.0 km/h 81 % 0.0 mm
17:16 12.2 °C 9.1 °C 1009.0 hPa SSW 13.7 km/h 28.0 km/h 81 % 0.0 mm
17:21 12.2 °C 9.1 °C 1009.0 hPa SSW 17.7 km/h 28.0 km/h 81 % 0.0 mm
17:26 12.2 °C 8.9 °C 1008.0 hPa SSW 12.2 km/h 20.6 km/h 80 % 0.0 mm
17:31 12.2 °C 8.9 °C 1008.0 hPa SW 15.4 km/h 23.0 km/h 80 % 0.0 mm
17:36 12.2 °C 8.9 °C 1008.0 hPa SSW 13.7 km/h 23.0 km/h 80 % 0.0 mm
17:41 12.2 °C 8.8 °C 1008.0 hPa SSW 5.8 km/h 21.2 km/h 80 % 0.0 mm
17:46 12.2 °C 8.8 °C 1008.0 hPa SSW 10.8 km/h 21.9 km/h 80 % 0.0 mm
17:51 12.2 °C 8.8 °C 1008.0 hPa SSW 12.2 km/h 21.9 km/h 80 % 0.0 mm
17:56 12.1 °C 8.7 °C 1008.0 hPa SW 12.2 km/h 20.6 km/h 80 % 0.0 mm
18:01 12.1 °C 8.7 °C 1008.0 hPa SSW 17.7 km/h 21.6 km/h 80 % 0.0 mm
18:06 12.1 °C 8.5 °C 1008.0 hPa SSW 9.3 km/h 21.6 km/h 79 % 0.0 mm
18:11 12.1 °C 8.5 °C 1008.0 hPa SSW 11.6 km/h 20.9 km/h 79 % 0.0 mm
18:16 11.9 °C 8.4 °C 1008.0 hPa SW 13.0 km/h 20.9 km/h 79 % 0.0 mm
18:21 11.9 °C 8.4 °C 1008.0 hPa SSW 16.3 km/h 17.7 km/h 79 % 0.0 mm
18:26 11.8 °C 8.3 °C 1007.0 hPa SSW 16.3 km/h 16.9 km/h 79 % 0.0 mm
18:31 11.8 °C 8.3 °C 1007.0 hPa SSW 10.5 km/h 18.3 km/h 79 % 0.0 mm
18:36 11.8 °C 8.2 °C 1007.0 hPa SW 11.9 km/h 18.3 km/h 79 % 0.0 mm
18:41 11.7 °C 8.3 °C 1008.0 hPa West 12.6 km/h 14.8 km/h 80 % 0.0 mm
18:46 11.7 °C 8.3 °C 1008.0 hPa WSW 9.3 km/h 16.6 km/h 80 % 0.0 mm
18:51 11.6 °C 8.4 °C 1008.0 hPa SW 12.2 km/h 16.6 km/h 81 % 0.0 mm
18:56 11.6 °C 8.4 °C 1008.0 hPa SSW 19.8 km/h 19.8 km/h 81 % 0.0 mm
19:01 11.6 °C 8.6 °C 1008.0 hPa WSW 16.6 km/h 23.8 km/h 82 % 0.0 mm
19:06 11.6 °C 8.6 °C 1008.0 hPa SSW 10.1 km/h 23.8 km/h 82 % 0.0 mm
19:11 11.4 °C 8.5 °C 1008.0 hPa WSW 6.4 km/h 16.9 km/h 82 % 0.0 mm
19:16 11.4 °C 8.5 °C 1008.0 hPa SW 10.8 km/h 17.7 km/h 82 % 0.0 mm
19:21 11.4 °C 8.7 °C 1008.0 hPa SSW 10.8 km/h 17.7 km/h 83 % 0.0 mm
19:26 11.4 °C 8.6 °C 1009.0 hPa SSW 7.9 km/h 16.6 km/h 83 % 0.0 mm
19:31 11.4 °C 8.6 °C 1009.0 hPa SW 9.7 km/h 16.9 km/h 83 % 0.0 mm
19:36 11.4 °C 8.8 °C 1009.0 hPa SW 9.0 km/h 17.7 km/h 84 % 0.0 mm
19:41 11.4 °C 8.8 °C 1008.0 hPa WSW 9.0 km/h 17.7 km/h 84 % 0.0 mm
19:46 11.4 °C 8.8 °C 1008.0 hPa SSW 12.2 km/h 19.5 km/h 84 % 0.0 mm
19:51 11.4 °C 8.8 °C 1008.0 hPa WSW 12.2 km/h 19.5 km/h 84 % 0.0 mm
19:56 11.3 °C 8.7 °C 1008.0 hPa SSW 8.7 km/h 17.7 km/h 84 % 0.0 mm
20:01 11.3 °C 8.7 °C 1008.0 hPa SW 9.0 km/h 17.7 km/h 84 % 0.0 mm
20:06 11.3 °C 8.7 °C 1008.0 hPa WSW 15.8 km/h 15.8 km/h 84 % 0.0 mm
20:11 11.3 °C 8.8 °C 1008.0 hPa WSW 10.5 km/h 15.8 km/h 85 % 0.0 mm
20:16 11.2 °C 8.7 °C 1008.0 hPa WSW 15.1 km/h 15.8 km/h 85 % 0.0 mm
20:21 11.2 °C 8.7 °C 1008.0 hPa WSW 15.4 km/h 16.9 km/h 85 % 0.0 mm
20:26 11.1 °C 8.7 °C 1008.0 hPa WSW 9.7 km/h 16.9 km/h 85 % 0.0 mm
20:31 11.0 °C 8.6 °C 1008.0 hPa WSW 11.9 km/h 17.2 km/h 85 % 0.0 mm
20:36 10.9 °C 8.4 °C 1008.0 hPa WSW 12.6 km/h 19.5 km/h 85 % 0.0 mm
20:41 10.9 °C 8.6 °C 1008.0 hPa WSW 15.8 km/h 23.3 km/h 86 % 0.0 mm
20:46 10.8 °C 8.6 °C 1008.0 hPa WSW 16.3 km/h 23.3 km/h 86 % 0.0 mm
20:51 10.7 °C 8.6 °C 1008.0 hPa WSW 15.4 km/h 21.9 km/h 87 % 0.0 mm
20:56 10.7 °C 8.6 °C 1008.0 hPa WSW 16.9 km/h 21.9 km/h 87 % 0.0 mm
21:01 10.7 °C 8.6 °C 1008.0 hPa WSW 17.2 km/h 23.8 km/h 87 % 0.0 mm
21:06 10.7 °C 8.6 °C 1008.0 hPa WSW 12.2 km/h 24.5 km/h 87 % 0.0 mm
21:11 10.6 °C 8.5 °C 1007.0 hPa WSW 20.9 km/h 24.5 km/h 87 % 0.0 mm
21:16 10.5 °C 8.4 °C 1007.0 hPa SW 16.6 km/h 23.8 km/h 87 % 0.0 mm
21:21 10.5 °C 8.4 °C 1007.0 hPa WSW 19.8 km/h 23.8 km/h 87 % 0.0 mm
21:26 10.5 °C 8.2 °C 1007.0 hPa WSW 16.3 km/h 23.0 km/h 86 % 0.0 mm
21:31 10.5 °C 8.2 °C 1007.0 hPa WSW 13.0 km/h 25.3 km/h 86 % 0.0 mm
21:36 10.5 °C 8.2 °C 1007.0 hPa WSW 12.6 km/h 25.3 km/h 86 % 0.0 mm
21:41 10.4 °C 8.2 °C 1007.0 hPa WSW 12.2 km/h 20.9 km/h 86 % 0.0 mm
21:46 10.4 °C 8.2 °C 1007.0 hPa WSW 21.2 km/h 21.2 km/h 86 % 0.0 mm
21:51 10.3 °C 8.1 °C 1007.0 hPa WSW 10.1 km/h 21.2 km/h 86 % 0.0 mm
21:56 10.3 °C 8.1 °C 1007.0 hPa WSW 11.9 km/h 21.2 km/h 86 % 0.0 mm
22:01 10.3 °C 8.1 °C 1007.0 hPa SSW 11.9 km/h 21.2 km/h 86 % 0.0 mm
22:06 10.3 °C 7.9 °C 1007.0 hPa SW 10.8 km/h 21.2 km/h 85 % 0.0 mm
22:11 10.3 °C 7.9 °C 1007.0 hPa SW 11.9 km/h 21.6 km/h 85 % 0.0 mm
22:16 10.3 °C 7.9 °C 1007.0 hPa SSW 12.6 km/h 21.6 km/h 85 % 0.0 mm
22:21 10.3 °C 7.9 °C 1007.0 hPa SW 9.7 km/h 16.3 km/h 85 % 0.0 mm
22:26 10.3 °C 7.9 °C 1006.0 hPa WSW 12.6 km/h 17.2 km/h 85 % 0.0 mm
22:31 10.3 °C 7.9 °C 1006.0 hPa SW 12.2 km/h 17.2 km/h 85 % 0.0 mm
22:36 10.3 °C 8.1 °C 1006.0 hPa SW 8.7 km/h 17.2 km/h 86 % 0.0 mm
22:41 10.4 °C 8.2 °C 1007.0 hPa SSW 10.1 km/h 17.7 km/h 86 % 0.0 mm
22:46 10.4 °C 8.2 °C 1007.0 hPa SSW 8.7 km/h 17.7 km/h 86 % 0.0 mm
22:51 10.3 °C 8.1 °C 1007.0 hPa SSW 9.0 km/h 15.8 km/h 86 % 0.0 mm
22:56 10.3 °C 8.1 °C 1007.0 hPa SSW 6.9 km/h 15.8 km/h 86 % 0.0 mm
23:01 10.2 °C 7.9 °C 1007.0 hPa South 12.6 km/h 12.6 km/h 86 % 0.0 mm
23:06 10.2 °C 7.9 °C 1007.0 hPa SSW 7.9 km/h 12.6 km/h 86 % 0.0 mm
23:11 10.1 °C 8.0 °C 1007.0 hPa SSW 6.4 km/h 12.2 km/h 87 % 0.0 mm
23:16 10.2 °C 8.1 °C 1007.0 hPa SSW 9.0 km/h 10.5 km/h 87 % 0.0 mm
23:21 10.2 °C 8.3 °C 1007.0 hPa South 6.1 km/h 10.5 km/h 88 % 0.0 mm
23:26 10.2 °C 8.3 °C 1007.0 hPa South 6.9 km/h 11.9 km/h 88 % 0.0 mm
23:31 10.3 °C 8.6 °C 1007.0 hPa SSW 5.8 km/h 11.9 km/h 89 % 0.0 mm
23:36 10.4 °C 8.7 °C 1007.0 hPa SSW 7.9 km/h 18.0 km/h 89 % 0.0 mm
23:41 10.4 °C 8.8 °C 1006.0 hPa SSW 12.2 km/h 18.0 km/h 90 % 0.0 mm
23:46 10.5 °C 8.9 °C 1006.0 hPa SW 10.1 km/h 16.6 km/h 90 % 0.0 mm
23:51 10.5 °C 8.7 °C 1006.0 hPa SW 8.7 km/h 16.9 km/h 89 % 0.0 mm
23:56 10.5 °C 8.7 °C 1006.0 hPa SSW 12.6 km/h 16.9 km/h 89 % 0.0 mm
Le Gheer Warneton
Courtoisie de Weather Underground - 2.25 mb

Mise a jour : 17-12-17 03:24:12
Généré par Cumulus 1.9.4 (1099)